Time;durP1;ratioP1;P1;durP2;ratioP2;P2;SDS_P1;SDS_P2;PMS_P1;PMS_P2;Temp;Humidity;BMP_temperature;BMP_pressure;BME280_temperature;BME280_humidity;BME280_pressure;Samples;Min_cycle;Max_cycle;Signal;HPM_P1;HPM_P2
2023/07/31 00:01:15;;;;;;;8.05;3.67;;;15.50;99.90;;;;;;5000671;28;89963;-32
2023/07/31 00:03:41;;;;;;;4.65;2.63;;;15.50;99.90;;;;;;4999689;28;89382;-32
2023/07/31 00:06:07;;;;;;;2.88;2.63;;;15.50;99.90;;;;;;4999626;28;87695;-32
2023/07/31 00:08:32;;;;;;;8.05;4.40;;;15.50;99.90;;;;;;4997738;28;90250;-35
2023/07/31 00:10:58;;;;;;;3.28;2.97;;;15.40;99.90;;;;;;5000294;28;89780;-32
2023/07/31 00:13:23;;;;;;;4.93;3.40;;;15.50;99.90;;;;;;4997577;28;90337;-36
2023/07/31 00:15:49;;;;;;;3.53;3.20;;;15.40;99.90;;;;;;4999513;28;88430;-33
2023/07/31 00:18:15;;;;;;;6.35;3.65;;;15.40;99.90;;;;;;4999260;28;88874;-32
2023/07/31 00:20:41;;;;;;;3.92;3.17;;;15.40;99.90;;;;;;4998813;28;90619;-33
2023/07/31 00:23:06;;;;;;;3.58;3.10;;;15.40;99.90;;;;;;4999013;28;90062;-33
2023/07/31 00:25:32;;;;;;;5.03;3.28;;;15.40;99.90;;;;;;5000129;28;89546;-38
2023/07/31 00:27:58;;;;;;;4.43;3.25;;;15.40;99.90;;;;;;4999223;28;90375;-40
2023/07/31 00:30:25;;;;;;;4.07;2.75;;;15.40;99.90;;;;;;5001002;28;90468;-38
2023/07/31 00:32:50;;;;;;;3.65;3.17;;;15.40;99.90;;;;;;5001755;28;89670;-32
2023/07/31 00:35:16;;;;;;;7.07;3.05;;;15.40;99.90;;;;;;5000561;28;88103;-32
2023/07/31 00:37:41;;;;;;;4.60;3.13;;;15.40;99.90;;;;;;4991279;28;90324;-37
2023/07/31 00:40:08;;;;;;;3.80;2.78;;;15.30;99.90;;;;;;4984876;28;89952;-38
2023/07/31 00:42:34;;;;;;;5.45;3.60;;;15.40;99.90;;;;;;4990079;28;89494;-34
2023/07/31 00:44:59;;;;;;;3.05;2.75;;;15.30;99.90;;;;;;4994270;28;89641;-31
2023/07/31 00:47:25;;;;;;;3.88;3.08;;;15.30;99.90;;;;;;4980837;28;90769;-31
2023/07/31 00:49:51;;;;;;;5.57;2.85;;;15.40;99.90;;;;;;4981534;28;90051;-36
2023/07/31 00:52:18;;;;;;;4.97;3.50;;;15.30;99.90;;;;;;4980251;28;89252;-33
2023/07/31 00:54:44;;;;;;;3.60;3.28;;;15.40;99.90;;;;;;4980383;28;88968;-34
2023/07/31 00:57:10;;;;;;;5.28;3.85;;;15.30;99.90;;;;;;4980663;28;89997;-36
2023/07/31 00:59:35;;;;;;;4.35;2.90;;;15.30;99.90;;;;;;4986211;28;89250;-34
2023/07/31 01:02:02;;;;;;;3.20;2.85;;;15.30;99.90;;;;;;5000107;28;89568;-31
2023/07/31 01:04:28;;;;;;;4.70;3.00;;;15.30;99.90;;;;;;5001113;28;88096;-34
2023/07/31 01:07:11;;;;;;;5.53;3.08;;;15.20;99.90;;;;;;4998670;28;90013;-32
2023/07/31 01:10:01;;;;;;;2.97;2.65;;;15.30;99.90;;;;;;4990519;28;90595;-37
2023/07/31 01:12:29;;;;;;;3.45;2.92;;;15.20;99.90;;;;;;4980403;28;90144;-32
2023/07/31 01:15:01;;;;;;;3.07;2.77;;;15.20;99.90;;;;;;4981246;28;88099;-32
2023/07/31 01:17:26;;;;;;;3.28;2.45;;;15.30;99.90;;;;;;4981003;28;90296;-32
2023/07/31 01:19:54;;;;;;;4.22;3.45;;;15.30;99.90;;;;;;4994137;28;90097;-36
2023/07/31 01:22:22;;;;;;;2.97;2.70;;;15.20;99.90;;;;;;4998842;28;89554;-32
2023/07/31 01:25:09;;;;;;;2.65;2.45;;;15.20;99.90;;;;;;4998137;28;90382;-38
2023/07/31 01:27:40;;;;;;;3.20;2.35;;;15.20;99.90;;;;;;4999984;28;91033;-32
2023/07/31 01:30:14;;;;;;;3.15;2.15;;;15.20;99.90;;;;;;4993789;28;89362;-35
2023/07/31 01:32:42;;;;;;;3.85;2.63;;;15.20;99.90;;;;;;4993572;28;90020;-34
2023/07/31 01:35:08;;;;;;;2.17;1.98;;;15.20;99.90;;;;;;4990856;28;90298;-34
2023/07/31 01:37:34;;;;;;;2.33;2.08;;;15.20;99.90;;;;;;4998649;28;88898;-34
2023/07/31 01:39:59;;;;;;;2.88;2.03;;;15.10;99.90;;;;;;4991692;28;91148;-33
2023/07/31 01:42:25;;;;;;;4.85;2.22;;;15.10;99.90;;;;;;4992778;28;89437;-35
2023/07/31 01:44:50;;;;;;;2.35;1.80;;;15.10;99.90;;;;;;4990845;28;88565;-35
2023/07/31 01:47:16;;;;;;;2.92;2.15;;;15.10;99.90;;;;;;4997178;28;89856;-37
2023/07/31 01:49:42;;;;;;;7.32;2.25;;;15.10;99.90;;;;;;4990521;28;88964;-35
2023/07/31 01:52:07;;;;;;;1.70;1.60;;;15.10;99.90;;;;;;4991460;28;89318;-35
2023/07/31 01:54:33;;;;;;;4.25;1.83;;;15.10;99.90;;;;;;4991148;28;88949;-34
2023/07/31 01:56:59;;;;;;;1.48;1.38;;;15.10;99.90;;;;;;4994422;28;92211;-34
2023/07/31 01:59:25;;;;;;;1.48;1.38;;;15.10;99.90;;;;;;4993285;28;90566;-34
2023/07/31 02:01:50;;;;;;;1.88;1.75;;;15.10;99.90;;;;;;4997675;28;90258;-33
2023/07/31 02:04:16;;;;;;;3.15;1.95;;;15.10;99.90;;;;;;4999542;28;90061;-32
2023/07/31 02:06:41;;;;;;;2.08;1.98;;;15.20;99.90;;;;;;5000272;28;91229;-33
2023/07/31 02:09:07;;;;;;;1.98;1.85;;;15.20;99.90;;;;;;4992558;28;89178;-38
2023/07/31 02:11:33;;;;;;;2.60;1.70;;;15.10;99.90;;;;;;4979167;28;89323;-37
2023/07/31 02:13:58;;;;;;;2.05;1.95;;;15.10;99.90;;;;;;4987258;28;88902;-31
2023/07/31 02:16:24;;;;;;;1.83;1.63;;;15.10;99.90;;;;;;4999579;28;89982;-36
2023/07/31 02:18:49;;;;;;;2.58;1.80;;;15.10;99.90;;;;;;4986742;28;90062;-32
2023/07/31 02:21:15;;;;;;;1.98;1.88;;;15.20;99.90;;;;;;4985435;28;89533;-39
2023/07/31 02:23:41;;;;;;;1.80;1.40;;;15.20;99.90;;;;;;4979937;28;89486;-32
2023/07/31 02:26:06;;;;;;;2.72;2.00;;;15.20;99.90;;;;;;4979590;28;90918;-34
2023/07/31 02:28:33;;;;;;;1.75;1.63;;;15.20;99.90;;;;;;4981590;28;89652;-35
2023/07/31 02:30:58;;;;;;;2.45;1.83;;;15.20;99.90;;;;;;4999837;28;89930;-37
2023/07/31 02:33:24;;;;;;;4.78;1.50;;;15.20;99.90;;;;;;4998637;28;89199;-32
2023/07/31 02:35:49;;;;;;;2.58;1.58;;;15.20;99.90;;;;;;4999662;28;90048;-35
2023/07/31 02:38:15;;;;;;;1.58;1.48;;;15.20;99.90;;;;;;4998483;28;90015;-33
2023/07/31 02:40:41;;;;;;;1.23;1.13;;;15.20;99.90;;;;;;4999492;28;89501;-34
2023/07/31 02:43:07;;;;;;;1.90;1.42;;;15.20;99.90;;;;;;4999547;28;87696;-31
2023/07/31 02:45:33;;;;;;;4.38;1.50;;;15.20;99.90;;;;;;4998488;28;89348;-33
2023/07/31 02:47:58;;;;;;;1.70;1.60;;;15.20;99.90;;;;;;4997193;28;90227;-37
2023/07/31 02:50:24;;;;;;;2.28;1.33;;;15.20;99.90;;;;;;4998426;28;90207;-38
2023/07/31 02:52:50;;;;;;;2.63;1.58;;;15.20;99.90;;;;;;4999226;28;89163;-39
2023/07/31 02:55:15;;;;;;;2.33;1.63;;;15.30;99.90;;;;;;4998746;28;90334;-34
2023/07/31 02:57:41;;;;;;;1.55;1.45;;;15.20;99.90;;;;;;4997390;28;88554;-36
2023/07/31 03:00:07;;;;;;;1.45;1.35;;;15.20;99.90;;;;;;4999041;28;89490;-33
2023/07/31 03:02:33;;;;;;;1.52;1.42;;;15.20;99.90;;;;;;4999155;28;87983;-34
2023/07/31 03:04:59;;;;;;;2.95;1.45;;;15.30;99.90;;;;;;4997638;28;89211;-33
2023/07/31 03:07:24;;;;;;;2.10;1.80;;;15.30;99.90;;;;;;4994018;28;89812;-36
2023/07/31 03:09:50;;;;;;;1.92;1.50;;;15.30;99.90;;;;;;4996854;28;89435;-38
2023/07/31 03:12:15;;;;;;;1.63;1.52;;;15.30;99.90;;;;;;4994920;28;88869;-33
2023/07/31 03:14:41;;;;;;;1.77;1.67;;;15.30;99.90;;;;;;4998057;28;89806;-36
2023/07/31 03:17:07;;;;;;;2.45;1.58;;;15.30;99.90;;;;;;4998330;28;89796;-32
2023/07/31 03:19:33;;;;;;;1.70;1.45;;;15.40;99.90;;;;;;4998502;28;89649;-34
2023/07/31 03:21:59;;;;;;;3.83;1.60;;;15.30;99.90;;;;;;4996743;28;89498;-36
2023/07/31 03:24:25;;;;;;;2.10;1.58;;;15.30;99.90;;;;;;4997622;28;90064;-34
2023/07/31 03:26:51;;;;;;;2.20;1.88;;;15.30;99.90;;;;;;4997083;28;89731;-32
2023/07/31 03:29:17;;;;;;;2.75;1.80;;;15.30;99.90;;;;;;4998926;28;89806;-37
2023/07/31 03:31:42;;;;;;;2.08;1.88;;;15.40;99.90;;;;;;4997958;28;88258;-33
2023/07/31 03:34:08;;;;;;;2.83;2.05;;;15.40;99.90;;;;;;4998273;28;91005;-37
2023/07/31 03:36:34;;;;;;;2.70;2.50;;;15.40;99.90;;;;;;4979935;28;90438;-32
2023/07/31 03:38:59;;;;;;;2.50;2.30;;;15.40;99.90;;;;;;4990302;28;90531;-32
2023/07/31 03:41:25;;;;;;;3.00;2.70;;;15.40;99.90;;;;;;4981004;28;88756;-34
2023/07/31 03:43:57;;;;;;;4.40;2.72;;;15.40;99.90;;;;;;4989726;28;90286;-34
2023/07/31 03:46:24;;;;;;;2.75;2.38;;;15.40;99.90;;;;;;4979100;28;89998;-33
2023/07/31 03:48:50;;;;;;;2.92;2.50;;;15.50;99.90;;;;;;4978746;28;89801;-37
2023/07/31 03:51:16;;;;;;;3.17;2.88;;;15.50;99.90;;;;;;4981870;28;89628;-34
2023/07/31 03:53:42;;;;;;;3.22;2.20;;;15.50;99.90;;;;;;4989773;28;90620;-32
2023/07/31 03:56:07;;;;;;;2.80;2.35;;;15.50;99.90;;;;;;4980304;28;92277;-36
2023/07/31 03:58:34;;;;;;;2.60;2.40;;;15.50;99.90;;;;;;4998219;28;89297;-36
2023/07/31 04:01:00;;;;;;;3.40;1.95;;;15.50;99.90;;;;;;4996854;28;89296;-34
2023/07/31 04:03:26;;;;;;;1.88;1.77;;;15.50;99.90;;;;;;4998670;28;90122;-36
2023/07/31 04:05:53;;;;;;;2.65;2.30;;;15.50;99.90;;;;;;4992633;28;90986;-33
2023/07/31 04:08:19;;;;;;;2.75;2.17;;;15.50;99.90;;;;;;4995848;28;90129;-35
2023/07/31 04:10:45;;;;;;;2.50;2.10;;;15.60;99.90;;;;;;4993741;28;89256;-39
2023/07/31 04:13:10;;;;;;;1.50;1.35;;;15.60;99.90;;;;;;4995266;28;90092;-35
2023/07/31 04:15:36;;;;;;;3.47;2.00;;;15.50;99.90;;;;;;4993004;28;89655;-38
2023/07/31 04:18:02;;;;;;;2.45;2.05;;;15.50;99.90;;;;;;4995973;28;89607;-34
2023/07/31 04:20:27;;;;;;;2.38;2.17;;;15.60;99.90;;;;;;4995517;28;89279;-30
2023/07/31 04:22:53;;;;;;;3.22;2.22;;;15.60;99.90;;;;;;4996664;28;90412;-39
2023/07/31 04:25:18;;;;;;;1.80;1.60;;;15.60;99.90;;;;;;4993068;28;91080;-31
2023/07/31 04:27:44;;;;;;;2.83;2.05;;;15.60;99.90;;;;;;4999245;28;90008;-40
2023/07/31 04:30:10;;;;;;;1.75;1.65;;;15.60;99.90;;;;;;4999312;28;89519;-35
2023/07/31 04:32:35;;;;;;;2.03;1.92;;;15.60;99.90;;;;;;5000187;28;90738;-34
2023/07/31 04:35:02;;;;;;;3.47;2.35;;;15.60;99.90;;;;;;4999432;28;90146;-36
2023/07/31 04:37:27;;;;;;;3.88;2.28;;;15.70;99.90;;;;;;4981185;28;89240;-31
2023/07/31 04:39:53;;;;;;;2.97;1.50;;;15.60;99.90;;;;;;4997287;28;88086;-35
2023/07/31 04:42:19;;;;;;;2.22;1.40;;;15.70;99.90;;;;;;5001842;28;90345;-32
2023/07/31 04:44:44;;;;;;;3.10;1.95;;;15.70;99.90;;;;;;5000498;28;88314;-39
2023/07/31 04:47:10;;;;;;;1.98;1.58;;;15.70;99.90;;;;;;5001367;28;89724;-32
2023/07/31 04:49:36;;;;;;;2.55;1.60;;;15.70;99.90;;;;;;5000214;28;90189;-32
2023/07/31 04:52:02;;;;;;;1.85;1.23;;;15.70;99.90;;;;;;5000909;28;90559;-36
2023/07/31 04:54:27;;;;;;;3.42;1.83;;;15.70;99.90;;;;;;5000044;28;89693;-36
2023/07/31 04:56:53;;;;;;;5.30;1.95;;;15.80;99.90;;;;;;5000797;28;89092;-37
2023/07/31 04:59:18;;;;;;;2.83;1.73;;;15.80;99.90;;;;;;5001725;28;89714;-34
2023/07/31 05:01:47;;;;;;;1.70;1.60;;;15.80;99.90;;;;;;5001097;28;89755;-33
2023/07/31 05:04:14;;;;;;;;;;;15.80;99.90;;;;;;4997643;28;90348;-33
2023/07/31 05:06:39;;;;;;;5.35;2.28;;;15.80;99.90;;;;;;5002863;28;89014;-31
2023/07/31 05:09:05;;;;;;;3.28;2.00;;;15.80;99.90;;;;;;4997983;28;88411;-37
2023/07/31 05:11:31;;;;;;;6.30;3.08;;;15.90;99.90;;;;;;4999455;28;89903;-34
2023/07/31 05:13:56;;;;;;;5.50;2.30;;;15.90;99.90;;;;;;4997961;28;91972;-34
2023/07/31 05:16:22;;;;;;;5.65;2.78;;;15.90;99.90;;;;;;4998696;28;90453;-33
2023/07/31 05:18:47;;;;;;;3.90;2.53;;;15.90;99.90;;;;;;4999799;28;89197;-33
2023/07/31 05:21:13;;;;;;;2.63;2.38;;;15.90;99.90;;;;;;5000596;28;89847;-35
2023/07/31 05:23:39;;;;;;;6.28;3.20;;;15.90;99.90;;;;;;4998558;28;89483;-32
2023/07/31 05:26:06;;;;;;;6.50;3.40;;;15.90;99.90;;;;;;4999156;28;90318;-35
2023/07/31 05:28:31;;;;;;;7.00;4.13;;;16.00;99.90;;;;;;4993938;28;90187;-35
2023/07/31 05:31:04;;;;;;;7.57;4.65;;;16.00;99.90;;;;;;4990427;28;90204;-34
2023/07/31 05:33:29;;;;;;;13.55;5.80;;;16.00;99.90;;;;;;4989059;28;89663;-33
2023/07/31 05:35:55;;;;;;;12.82;6.70;;;16.00;99.90;;;;;;4987958;28;89613;-32
2023/07/31 05:38:21;;;;;;;14.82;5.88;;;16.10;99.90;;;;;;4987989;28;89691;-36
2023/07/31 05:40:47;;;;;;;14.70;7.68;;;16.00;99.90;;;;;;4987276;28;90378;-34
2023/07/31 05:43:13;;;;;;;14.73;7.10;;;16.00;99.90;;;;;;4987548;28;90031;-36
2023/07/31 05:45:40;;;;;;;14.63;6.45;;;16.10;99.90;;;;;;4982153;28;89361;-34
2023/07/31 05:48:06;;;;;;;16.38;6.90;;;16.10;99.90;;;;;;4982124;28;88380;-35
2023/07/31 05:50:31;;;;;;;22.98;8.75;;;16.10;99.90;;;;;;4980667;28;90354;-34
2023/07/31 05:52:57;;;;;;;18.92;9.02;;;16.10;99.90;;;;;;4994268;28;89483;-36
2023/07/31 05:55:23;;;;;;;16.77;8.52;;;16.10;99.90;;;;;;4983515;28;89575;-33
2023/07/31 05:57:49;;;;;;;17.65;9.00;;;16.20;99.90;;;;;;4987381;28;89997;-34
2023/07/31 06:00:15;;;;;;;11.82;7.90;;;16.10;99.90;;;;;;4989256;28;90162;-34
2023/07/31 06:02:41;;;;;;;16.17;7.95;;;16.10;99.90;;;;;;4991022;28;90620;-35
2023/07/31 06:05:07;;;;;;;20.50;9.30;;;16.20;99.90;;;;;;4988643;28;90889;-33
2023/07/31 06:07:32;;;;;;;18.55;10.15;;;16.20;99.90;;;;;;4978068;28;89224;-32
2023/07/31 06:10:04;;;;;;;23.08;10.30;;;16.20;99.90;;;;;;4977860;28;89149;-40
2023/07/31 06:12:30;;;;;;;20.92;10.18;;;16.20;99.90;;;;;;4984618;28;89517;-36
2023/07/31 06:14:56;;;;;;;28.75;9.10;;;16.20;99.90;;;;;;4984069;28;89186;-39
2023/07/31 06:17:22;;;;;;;23.70;10.07;;;16.20;99.90;;;;;;4978606;28;90119;-36
2023/07/31 06:19:47;;;;;;;29.92;10.73;;;16.20;99.90;;;;;;4977939;28;90996;-34
2023/07/31 06:22:13;;;;;;;18.70;9.00;;;16.20;99.90;;;;;;4977606;28;91456;-35
2023/07/31 06:24:39;;;;;;;17.90;10.68;;;16.20;99.90;;;;;;4979453;28;89682;-34
2023/07/31 06:27:05;;;;;;;24.17;8.80;;;16.30;99.90;;;;;;4997345;28;89499;-36
2023/07/31 06:29:31;;;;;;;20.95;10.60;;;16.20;99.90;;;;;;4997029;28;89844;-37
2023/07/31 06:31:57;;;;;;;24.23;10.82;;;16.30;99.90;;;;;;4992800;28;89721;-38
2023/07/31 06:34:22;;;;;;;20.85;12.20;;;16.30;99.90;;;;;;4977634;28;89107;-35
2023/07/31 06:36:48;;;;;;;22.85;11.35;;;16.30;99.90;;;;;;4977433;28;88228;-34
2023/07/31 06:39:14;;;;;;;25.17;11.68;;;16.30;99.90;;;;;;4976541;28;90278;-35
2023/07/31 06:41:39;;;;;;;20.70;10.02;;;16.30;99.90;;;;;;4985896;28;89265;-36
2023/07/31 06:44:05;;;;;;;17.95;10.57;;;16.30;99.90;;;;;;4983613;28;89622;-37
2023/07/31 06:46:31;;;;;;;18.25;11.32;;;16.30;99.90;;;;;;4993614;28;89885;-33
2023/07/31 06:48:56;;;;;;;20.52;11.65;;;16.30;99.90;;;;;;4983138;28;90163;-37
2023/07/31 06:51:22;;;;;;;21.05;11.82;;;16.30;99.90;;;;;;4991051;28;90423;-35
2023/07/31 06:53:48;;;;;;;17.27;10.63;;;16.30;99.90;;;;;;4983673;28;89148;-33
2023/07/31 06:56:13;;;;;;;21.35;12.00;;;16.30;99.90;;;;;;4993997;28;89528;-34
2023/07/31 06:58:39;;;;;;;16.23;10.70;;;16.40;99.90;;;;;;4985984;28;90210;-33
2023/07/31 07:01:05;;;;;;;18.75;11.23;;;16.40;99.90;;;;;;4988841;28;89073;-39
2023/07/31 07:03:31;;;;;;;26.10;13.10;;;16.40;99.90;;;;;;4996136;28;90177;-37
2023/07/31 07:05:56;;;;;;;24.08;14.23;;;16.40;99.90;;;;;;4995454;28;88415;-36
2023/07/31 07:08:22;;;;;;;20.65;10.85;;;16.40;99.90;;;;;;4996516;28;90230;-37
2023/07/31 07:10:47;;;;;;;26.00;12.00;;;16.40;99.90;;;;;;4996450;28;90265;-33
2023/07/31 07:13:13;;;;;;;26.50;11.40;;;16.40;99.90;;;;;;4995902;28;89518;-34
2023/07/31 07:15:39;;;;;;;20.35;10.70;;;16.40;99.90;;;;;;4995041;28;89714;-36
2023/07/31 07:18:05;;;;;;;20.42;11.05;;;16.40;99.90;;;;;;4981945;28;90304;-36
2023/07/31 07:20:30;;;;;;;19.10;10.95;;;16.40;99.90;;;;;;4987333;28;89754;-31
2023/07/31 07:22:56;;;;;;;19.92;9.85;;;16.40;99.90;;;;;;4989866;28;90283;-37
2023/07/31 07:25:21;;;;;;;13.35;10.13;;;16.40;99.90;;;;;;4996518;28;88446;-36
2023/07/31 07:27:47;;;;;;;19.40;10.52;;;16.40;99.90;;;;;;4981392;28;90787;-38
2023/07/31 07:30:14;;;;;;;13.85;8.00;;;16.40;99.90;;;;;;4992273;28;90122;-37
2023/07/31 07:32:39;;;;;;;13.93;8.13;;;16.40;99.90;;;;;;5002291;28;90465;-38
2023/07/31 07:35:06;;;;;;;12.43;7.53;;;16.40;99.90;;;;;;4996426;28;89051;-36
2023/07/31 07:37:32;;;;;;;12.13;7.85;;;16.40;99.90;;;;;;4986933;28;91147;-40
2023/07/31 07:39:57;;;;;;;13.27;8.15;;;16.40;99.90;;;;;;4979153;28;90779;-35
2023/07/31 07:42:23;;;;;;;13.43;8.13;;;16.50;99.90;;;;;;4995734;28;90787;-34
2023/07/31 07:44:49;;;;;;;9.35;6.47;;;16.50;99.90;;;;;;4996934;28;89235;-39
2023/07/31 07:47:14;;;;;;;9.65;5.72;;;16.50;99.90;;;;;;4995676;28;89303;-36
2023/07/31 07:49:40;;;;;;;8.77;6.85;;;16.50;99.90;;;;;;4995470;28;89551;-36
2023/07/31 07:52:06;;;;;;;12.10;6.57;;;16.50;99.90;;;;;;4995314;28;89297;-34
2023/07/31 07:54:32;;;;;;;8.25;5.50;;;16.60;99.90;;;;;;4995176;28;87562;-33
2023/07/31 07:56:57;;;;;;;10.05;5.72;;;16.60;99.90;;;;;;4996660;28;90922;-36
2023/07/31 07:59:23;;;;;;;7.57;5.30;;;16.60;99.90;;;;;;4994340;28;89784;-35
2023/07/31 08:01:49;;;;;;;12.23;5.95;;;16.60;99.90;;;;;;4997154;28;89229;-36
2023/07/31 08:04:14;;;;;;;13.15;6.20;;;16.60;99.90;;;;;;4996703;28;89512;-33
2023/07/31 08:06:40;;;;;;;13.88;6.88;;;16.60;99.90;;;;;;4978931;28;90347;-33
2023/07/31 08:09:06;;;;;;;7.45;6.00;;;16.60;99.90;;;;;;4984747;28;90326;-36
2023/07/31 08:11:35;;;;;;;6.65;4.72;;;16.60;99.90;;;;;;5026597;22;90100;-33
2023/07/31 08:14:01;;;;;;;8.27;5.85;;;16.60;99.90;;;;;;4982307;28;88719;-34
2023/07/31 08:16:27;;;;;;;7.68;6.15;;;16.60;99.90;;;;;;4982559;28;90416;-35
2023/07/31 08:18:52;;;;;;;8.30;5.70;;;16.50;99.90;;;;;;4996033;28;89422;-35
2023/07/31 08:21:18;;;;;;;8.05;6.25;;;16.70;99.90;;;;;;4984702;28;89896;-37
2023/07/31 08:23:44;;;;;;;7.72;5.90;;;16.80;99.90;;;;;;5004929;28;89158;-36
2023/07/31 08:26:16;;;;;;;14.75;7.32;;;16.80;99.90;;;;;;4984277;28;90860;-38
2023/07/31 08:28:41;;;;;;;6.35;5.10;;;16.80;99.90;;;;;;4988224;28;90221;-33
2023/07/31 08:31:07;;;;;;;6.88;5.70;;;16.70;99.90;;;;;;4980640;28;89969;-39
2023/07/31 08:33:32;;;;;;;11.48;5.68;;;16.80;99.90;;;;;;4996239;28;88614;-38
2023/07/31 08:35:59;;;;;;;9.43;5.65;;;16.80;99.90;;;;;;4989337;28;90222;-38
2023/07/31 08:38:26;;;;;;;7.22;4.90;;;16.80;99.90;;;;;;5012018;28;89757;-35
2023/07/31 08:40:52;;;;;;;8.30;4.40;;;16.80;99.90;;;;;;4998511;28;91244;-33
2023/07/31 08:43:18;;;;;;;8.55;5.80;;;16.80;99.90;;;;;;5001978;28;88911;-35
2023/07/31 08:45:44;;;;;;;6.75;4.40;;;16.80;99.90;;;;;;5009074;28;90220;-34
2023/07/31 08:48:11;;;;;;;7.15;4.38;;;16.80;99.90;;;;;;4998197;28;89841;-35
2023/07/31 08:50:38;;;;;;;8.05;4.80;;;16.70;99.90;;;;;;4997473;28;89785;-39
2023/07/31 08:53:04;;;;;;;5.93;4.82;;;16.70;99.90;;;;;;4985677;28;90057;-37
2023/07/31 08:55:31;;;;;;;4.20;3.58;;;16.80;99.90;;;;;;4988992;28;90632;-34
2023/07/31 08:57:57;;;;;;;7.85;4.18;;;16.80;99.90;;;;;;4982168;28;89539;-37
2023/07/31 09:00:25;;;;;;;5.82;3.78;;;16.80;99.90;;;;;;4982726;28;89554;-35
2023/07/31 09:03:02;;;;;;;3.97;3.63;;;16.90;99.90;;;;;;5002212;28;89907;-37
2023/07/31 09:05:30;;;;;;;5.80;3.75;;;16.90;99.90;;;;;;4999887;28;90031;-37
2023/07/31 09:07:57;;;;;;;6.60;3.47;;;17.00;99.90;;;;;;5001317;28;90136;-34
2023/07/31 09:10:23;;;;;;;10.68;3.80;;;17.00;99.90;;;;;;5000838;28;89865;-34
2023/07/31 09:12:51;;;;;;;3.50;2.88;;;17.00;99.90;;;;;;5001465;28;89802;-38
2023/07/31 09:15:17;;;;;;;6.05;3.40;;;17.00;99.90;;;;;;4998638;28;90162;-36
2023/07/31 09:17:42;;;;;;;3.72;3.05;;;17.10;99.90;;;;;;4990601;28;90831;-34
2023/07/31 09:20:21;;;;;;;2.70;2.42;;;17.10;99.90;;;;;;4999618;28;90185;-34
2023/07/31 09:22:49;;;;;;;2.92;2.63;;;17.10;99.90;;;;;;4999619;28;88480;-35
2023/07/31 09:25:19;;;;;;;2.95;2.50;;;17.20;99.90;;;;;;5000913;28;89960;-38
2023/07/31 09:27:49;;;;;;;3.70;2.75;;;17.20;99.90;;;;;;5000030;28;88938;-37
2023/07/31 09:30:15;;;;;;;4.55;2.42;;;17.30;99.90;;;;;;5001386;28;89335;-37
2023/07/31 09:32:44;;;;;;;3.17;2.53;;;17.30;99.90;;;;;;4990502;28;87811;-34
2023/07/31 09:35:15;;;;;;;3.10;2.20;;;17.30;99.90;;;;;;5002906;28;91126;-33
2023/07/31 09:37:41;;;;;;;2.58;2.10;;;17.30;99.90;;;;;;4999937;28;89831;-38
2023/07/31 09:40:07;;;;;;;3.42;1.95;;;17.30;99.90;;;;;;5002388;28;89784;-33
2023/07/31 09:42:34;;;;;;;2.05;1.90;;;17.50;99.90;;;;;;4999974;28;90581;-38
2023/07/31 09:45:10;;;;;;;1.50;1.20;;;17.50;99.90;;;;;;4984465;28;89944;-34
2023/07/31 09:47:36;;;;;;;2.03;1.85;;;17.50;99.90;;;;;;5001385;28;90090;-31
2023/07/31 09:50:06;;;;;;;1.65;1.55;;;17.50;99.90;;;;;;5002535;28;90369;-36
2023/07/31 09:52:32;;;;;;;1.40;1.30;;;17.60;99.90;;;;;;5000385;28;88919;-38
2023/07/31 09:54:58;;;;;;;1.50;1.40;;;17.60;99.90;;;;;;5002795;28;90553;-37
2023/07/31 09:57:25;;;;;;;1.75;1.65;;;17.60;99.90;;;;;;5000157;28;90029;-35
2023/07/31 09:59:53;;;;;;;1.40;1.30;;;17.60;99.90;;;;;;5002656;28;89821;-35
2023/07/31 10:02:22;;;;;;;1.48;1.38;;;17.70;99.90;;;;;;4997037;28;88562;-34
2023/07/31 10:04:50;;;;;;;2.72;2.15;;;17.70;99.90;;;;;;4997689;28;90375;-34
2023/07/31 10:07:18;;;;;;;1.50;1.40;;;17.70;99.90;;;;;;4990866;28;90812;-38
2023/07/31 10:09:45;;;;;;;1.52;1.42;;;17.70;99.90;;;;;;4995479;28;89858;-35
2023/07/31 10:12:14;;;;;;;1.58;1.48;;;17.70;99.90;;;;;;4990581;28;89517;-34
2023/07/31 10:14:41;;;;;;;1.42;1.33;;;17.80;99.90;;;;;;4994568;28;89127;-35
2023/07/31 10:17:08;;;;;;;1.57;1.47;;;17.70;99.90;;;;;;4992850;28;89716;-38
2023/07/31 10:19:35;;;;;;;1.40;1.30;;;17.80;99.90;;;;;;4994821;28;88739;-34
2023/07/31 10:22:03;;;;;;;1.30;1.20;;;17.80;99.90;;;;;;4991510;28;89427;-34
2023/07/31 10:24:30;;;;;;;1.30;1.20;;;17.80;99.90;;;;;;5004024;28;89948;-35
2023/07/31 10:26:59;;;;;;;1.38;1.27;;;17.90;99.90;;;;;;4997480;28;89842;-39
2023/07/31 10:29:26;;;;;;;2.78;1.33;;;17.90;99.90;;;;;;4996588;28;88178;-35
2023/07/31 10:31:53;;;;;;;1.92;1.83;;;17.80;99.90;;;;;;4980954;28;88960;-35
2023/07/31 10:34:18;;;;;;;1.30;1.20;;;17.80;99.90;;;;;;4977316;28;91730;-35
2023/07/31 10:36:44;;;;;;;2.55;2.13;;;17.70;99.90;;;;;;4993622;28;89788;-33
2023/07/31 10:39:36;;;;;;;2.13;1.92;;;17.80;99.90;;;;;;4997064;28;91581;-32
2023/07/31 10:42:13;;;;;;;1.70;1.48;;;17.80;99.90;;;;;;4984163;28;87881;-38
2023/07/31 10:44:44;;;;;;;2.25;2.15;;;17.80;99.90;;;;;;4997375;28;89933;-36
2023/07/31 10:47:09;;;;;;;1.73;1.63;;;18.00;99.90;;;;;;4996524;28;90575;-35
2023/07/31 10:49:35;;;;;;;2.47;2.28;;;18.10;99.90;;;;;;4978162;28;90775;-33
2023/07/31 10:52:04;;;;;;;2.30;2.15;;;18.10;99.90;;;;;;4996564;28;90154;-37
2023/07/31 10:54:29;;;;;;;2.50;2.30;;;18.10;99.90;;;;;;4995549;28;90939;-39
2023/07/31 10:56:57;;;;;;;2.60;2.15;;;18.20;99.90;;;;;;4996142;28;90619;-35
2023/07/31 10:59:28;;;;;;;2.17;1.97;;;18.20;99.90;;;;;;4995479;28;90910;-32
2023/07/31 11:01:58;;;;;;;1.80;1.70;;;18.20;99.90;;;;;;5011058;28;88896;-35
2023/07/31 11:04:26;;;;;;;2.33;2.13;;;18.30;99.90;;;;;;4984021;28;90394;-36
2023/07/31 11:07:04;;;;;;;2.78;2.47;;;18.40;99.90;;;;;;4997381;28;90044;-34
2023/07/31 11:09:32;;;;;;;2.67;2.47;;;18.30;99.90;;;;;;5006643;28;89412;-34
2023/07/31 11:11:58;;;;;;;3.50;2.78;;;18.40;99.90;;;;;;4995677;28;90082;-32
2023/07/31 11:14:24;;;;;;;2.95;2.70;;;18.50;99.90;;;;;;4996859;28;89999;-38
2023/07/31 11:16:53;;;;;;;2.35;2.05;;;18.50;99.90;;;;;;4995560;28;89422;-39
2023/07/31 11:19:23;;;;;;;2.40;2.20;;;18.50;99.90;;;;;;4995785;28;88203;-37
2023/07/31 11:21:49;;;;;;;2.80;2.55;;;18.60;99.90;;;;;;4995398;28;89369;-38
2023/07/31 11:24:15;;;;;;;2.58;2.38;;;18.60;99.90;;;;;;4996062;28;90489;-37
2023/07/31 11:26:51;;;;;;;2.50;1.80;;;18.70;99.90;;;;;;4996140;28;90241;-32
2023/07/31 11:29:18;;;;;;;1.63;1.52;;;18.80;99.90;;;;;;4995484;28;89596;-34
2023/07/31 11:31:44;;;;;;;1.42;1.33;;;18.80;99.90;;;;;;4999037;28;89373;-39
2023/07/31 11:34:10;;;;;;;1.27;1.10;;;18.80;99.90;;;;;;5007190;28;91549;-32
2023/07/31 11:36:36;;;;;;;1.52;1.42;;;18.60;99.90;;;;;;4980303;28;90175;-33
2023/07/31 11:39:09;;;;;;;1.63;1.50;;;18.70;99.90;;;;;;4987213;28;90162;-35
2023/07/31 11:41:34;;;;;;;1.67;1.58;;;18.70;99.90;;;;;;4996443;28;90174;-36
2023/07/31 11:44:01;;;;;;;1.55;1.45;;;18.80;99.90;;;;;;4996647;28;90494;-32
2023/07/31 11:46:27;;;;;;;1.45;1.33;;;18.70;99.90;;;;;;4995175;28;90290;-35
2023/07/31 11:48:58;;;;;;;2.50;1.60;;;18.70;99.90;;;;;;5007288;28;90240;-35
2023/07/31 11:51:25;;;;;;;1.50;1.40;;;18.70;99.90;;;;;;4997663;28;89057;-35
2023/07/31 11:53:54;;;;;;;1.65;1.55;;;18.70;99.90;;;;;;4996555;28;89902;-32
2023/07/31 11:56:22;;;;;;;1.05;1.05;;;18.70;99.90;;;;;;4995235;28;90342;-32
2023/07/31 11:58:51;;;;;;;1.20;1.10;;;18.70;99.90;;;;;;4996488;28;90107;-34
2023/07/31 12:01:20;;;;;;;0.68;0.68;;;18.70;99.90;;;;;;4992864;28;90048;-33
2023/07/31 12:03:47;;;;;;;1.20;1.10;;;18.70;99.90;;;;;;4985620;28;91068;-35
2023/07/31 12:06:12;;;;;;;1.88;1.00;;;18.70;99.90;;;;;;4984735;28;90088;-31
2023/07/31 12:08:38;;;;;;;0.80;0.80;;;18.70;99.90;;;;;;4995726;28;89503;-37
2023/07/31 12:11:05;;;;;;;1.38;1.27;;;18.60;99.90;;;;;;4986893;28;90089;-38
2023/07/31 12:13:32;;;;;;;1.65;1.48;;;18.60;99.90;;;;;;4988058;28;89833;-31
2023/07/31 12:16:01;;;;;;;1.65;1.55;;;18.60;99.90;;;;;;4985340;28;90064;-34
2023/07/31 12:18:29;;;;;;;2.33;1.70;;;18.70;99.90;;;;;;4993337;28;89463;-32
2023/07/31 12:20:59;;;;;;;2.45;1.70;;;18.70;99.90;;;;;;4959447;28;87791;-35
2023/07/31 12:23:30;;;;;;;1.98;1.50;;;18.70;99.90;;;;;;4980307;28;92200;-33
2023/07/31 12:26:08;;;;;;;1.67;1.50;;;18.70;99.90;;;;;;4985620;28;90184;-37
2023/07/31 12:28:41;;;;;;;1.10;0.85;;;18.70;99.90;;;;;;4991055;28;89610;-34
2023/07/31 12:31:13;;;;;;;1.70;1.38;;;18.80;99.90;;;;;;4990768;28;89726;-34
2023/07/31 12:33:40;;;;;;;1.90;1.23;;;18.90;99.90;;;;;;4988576;28;90712;-33
2023/07/31 12:36:14;;;;;;;1.15;0.90;;;19.00;99.90;;;;;;4988227;28;90433;-40
2023/07/31 12:38:41;;;;;;;3.83;1.17;;;19.10;99.90;;;;;;4995319;28;90660;-37
2023/07/31 12:41:07;;;;;;;1.98;1.20;;;18.90;99.90;;;;;;4995356;28;90054;-38